Time;durP1;ratioP1;P1;durP2;ratioP2;P2;SDS_P1;SDS_P2;PMS_P1;PMS_P2;Temp;Humidity;BMP_temperature;BMP_pressure;BME280_temperature;BME280_humidity;BME280_pressure;Samples;Min_cycle;Max_cycle;Signal;HPM_P1;HPM_P2
2023/07/21 00:04:24;;;;;;;0.00;0.00;;;;;;;21.99;100.00;101243.13;10434639;28;20068;-78
2023/07/21 00:09:26;;;;;;;0.00;0.00;;;;;;;22.11;100.00;101236.81;10444342;28;21187;-79
2023/07/21 00:14:28;;;;;;;0.00;0.00;;;;;;;21.94;100.00;101234.44;10430246;28;20053;-79
2023/07/21 00:19:30;;;;;;;0.00;0.00;;;;;;;21.74;100.00;101235.63;10431432;28;20059;-79
2023/07/21 00:24:32;;;;;;;0.10;0.10;;;;;;;21.80;100.00;101232.91;10425174;28;20053;-79
2023/07/21 00:29:33;;;;;;;0.00;0.00;;;;;;;21.63;100.00;101234.94;10422715;28;20416;-80
2023/07/21 00:34:35;;;;;;;0.40;0.10;;;;;;;21.60;100.00;101224.47;10445954;28;20484;-79
2023/07/21 00:39:37;;;;;;;0.00;0.00;;;;;;;21.85;100.00;101231.09;10436533;28;20481;-79
2023/07/21 00:44:39;;;;;;;0.10;0.00;;;;;;;21.81;100.00;101221.53;10412151;28;20041;-79
2023/07/21 00:49:41;;;;;;;0.00;0.00;;;;;;;21.71;100.00;101223.44;10418309;28;20060;-79
2023/07/21 00:54:47;;;;;;;0.00;0.00;;;;;;;21.42;100.00;101226.44;10440551;28;20135;-79
2023/07/21 00:59:49;;;;;;;0.20;0.10;;;;;;;21.53;100.00;101224.56;10432096;28;20041;-79
2023/07/21 01:04:59;;;;;;;0.00;0.00;;;;;;;21.36;100.00;101222.19;10430633;28;20202;-79
2023/07/21 01:10:03;;;;;;;0.00;0.00;;;;;;;21.18;100.00;101218.06;10422006;28;20045;-79
2023/07/21 01:15:06;;;;;;;0.00;0.00;;;;;;;21.37;100.00;101207.31;10450513;28;20056;-79
2023/07/21 01:20:11;;;;;;;0.00;0.00;;;;;;;20.77;100.00;101203.72;10428460;28;20048;-80
2023/07/21 01:25:14;;;;;;;0.00;0.00;;;;;;;21.59;100.00;101196.53;10417351;28;20052;-80
2023/07/21 01:30:18;;;;;;;0.10;0.10;;;;;;;21.76;100.00;101188.38;10414470;28;20044;-80
2023/07/21 01:35:21;;;;;;;0.10;0.10;;;;;;;21.52;100.00;101191.34;10445357;28;20098;-80
2023/07/21 01:40:25;;;;;;;0.00;0.00;;;;;;;21.15;100.00;101177.94;10444404;28;20049;-80
2023/07/21 01:45:26;;;;;;;0.00;0.00;;;;;;;21.08;100.00;101174.53;10414902;28;20045;-80
2023/07/21 01:50:29;;;;;;;0.10;0.10;;;;;;;21.39;100.00;101172.31;10435752;28;20064;-80
2023/07/21 01:55:46;;;;;;;0.22;0.17;;;;;;;21.21;100.00;101170.84;10436835;28;20053;-80
2023/07/21 02:00:48;;;;;;;0.00;0.00;;;;;;;21.35;100.00;101167.13;10441969;28;20439;-80
2023/07/21 02:05:53;;;;;;;0.00;0.00;;;;;;;21.15;100.00;101165.69;10451309;28;20507;-80
2023/07/21 02:10:54;;;;;;;0.00;0.00;;;;;;;20.76;100.00;101167.94;10452217;28;20124;-80
2023/07/21 02:16:13;;;;;;;0.00;0.00;;;;;;;20.46;100.00;101170.00;10419073;28;20046;-80
2023/07/21 02:21:15;;;;;;;0.00;0.00;;;;;;;20.68;100.00;101160.16;10437055;28;20098;-80
2023/07/21 02:26:17;;;;;;;0.00;0.00;;;;;;;20.54;100.00;101162.06;10409419;28;20042;-80
2023/07/21 02:31:21;;;;;;;0.00;0.00;;;;;;;20.25;100.00;101158.03;10474063;28;20068;-80
2023/07/21 02:36:23;;;;;;;0.10;0.10;;;;;;;20.22;100.00;101151.06;10432876;28;20048;-80
2023/07/21 02:41:26;;;;;;;0.00;0.00;;;;;;;19.93;100.00;101154.81;10415146;28;20049;-80
2023/07/21 02:46:27;;;;;;;0.00;0.00;;;;;;;19.77;100.00;101153.22;10432452;28;20059;-80
2023/07/21 02:51:29;;;;;;;2.20;0.20;;;;;;;19.87;100.00;101148.78;10440604;28;20144;-80
2023/07/21 02:56:33;;;;;;;0.00;0.00;;;;;;;20.28;100.00;101151.00;10434534;28;20060;-80
2023/07/21 03:01:54;;;;;;;0.00;0.00;;;;;;;19.96;100.00;101133.88;10433961;28;20052;-80
2023/07/21 03:07:04;;;;;;;0.10;0.10;;;;;;;19.44;100.00;101142.13;10455146;28;20045;-80
2023/07/21 03:12:07;;;;;;;0.00;0.00;;;;;;;20.08;100.00;101137.25;10440330;28;20041;-80
2023/07/21 03:17:35;;;;;;;0.32;0.13;;;;;;;19.79;100.00;101135.75;10437313;28;20041;-79
2023/07/21 03:22:37;;;;;;;0.00;0.00;;;;;;;20.05;100.00;101130.31;10446988;28;20463;-80
2023/07/21 03:27:40;;;;;;;0.08;0.08;;;;;;;20.07;100.00;101133.78;10427435;28;20075;-80
2023/07/21 03:32:45;;;;;;;0.00;0.00;;;;;;;19.68;100.00;101142.81;10410114;28;20045;-80
2023/07/21 03:37:47;;;;;;;0.00;0.00;;;;;;;19.54;100.00;101149.03;10442354;28;20049;-80
2023/07/21 03:42:53;;;;;;;0.00;0.00;;;;;;;19.50;100.00;101145.56;10437011;28;20056;-80
2023/07/21 03:47:55;;;;;;;0.00;0.00;;;;;;;19.12;100.00;101143.19;10448759;28;20155;-80
2023/07/21 03:52:56;;;;;;;0.00;0.00;;;;;;;19.22;100.00;101139.66;10423153;28;20052;-79
2023/07/21 03:57:59;;;;;;;0.05;0.00;;;;;;;19.72;100.00;101131.44;10437334;28;20044;-80
2023/07/21 04:03:01;;;;;;;0.05;0.05;;;;;;;19.28;100.00;101137.00;10435894;28;20145;-80
2023/07/21 04:08:03;;;;;;;0.10;0.10;;;;;;;18.70;100.00;101133.81;10439669;28;20735;-80
2023/07/21 04:13:05;;;;;;;0.10;0.10;;;;;;;19.08;100.00;101131.91;10445920;28;20099;-79
2023/07/21 04:18:07;;;;;;;0.00;0.00;;;;;;;19.91;100.00;101135.69;10440044;28;20108;-80
2023/07/21 04:23:12;;;;;;;0.15;0.10;;;;;;;19.77;100.00;101127.06;10439263;28;20119;-80
2023/07/21 04:28:14;;;;;;;0.00;0.00;;;;;;;20.31;100.00;101117.81;10434505;28;20132;-80
2023/07/21 04:33:16;;;;;;;0.10;0.05;;;;;;;20.20;100.00;101108.38;10429472;28;20045;-80
2023/07/21 04:38:18;;;;;;;0.00;0.00;;;;;;;19.09;100.00;101111.91;10426004;28;20112;-80
2023/07/21 04:43:25;;;;;;;0.00;0.00;;;;;;;19.89;100.00;101111.28;10445703;28;20053;-80
2023/07/21 04:48:27;;;;;;;0.13;0.13;;;;;;;20.05;100.00;101116.38;10439493;28;20044;-80
2023/07/21 04:53:30;;;;;;;0.00;0.00;;;;;;;20.09;100.00;101118.94;10416313;28;20068;-80
2023/07/21 04:58:32;;;;;;;0.25;0.13;;;;;;;19.19;100.00;101129.22;10424514;28;20048;-79
2023/07/21 05:03:34;;;;;;;0.00;0.00;;;;;;;19.60;100.00;101120.22;10431439;28;20136;-80
2023/07/21 05:08:36;;;;;;;0.00;0.00;;;;;;;19.84;100.00;101122.63;10431151;28;20045;-80
2023/07/21 05:13:39;;;;;;;1.17;0.10;;;;;;;20.60;100.00;101125.34;10398972;28;20053;-80
2023/07/21 05:19:10;;;;;;;0.00;0.00;;;;;;;20.59;100.00;101118.38;10427340;28;20048;-81
2023/07/21 05:24:31;;;;;;;0.22;0.10;;;;;;;20.96;100.00;101117.94;10452956;28;20661;-81
2023/07/21 05:29:34;;;;;;;0.00;0.00;;;;;;;20.98;100.00;101125.75;10425169;28;20037;-81
2023/07/21 05:34:36;;;;;;;1.17;0.52;;;;;;;20.84;100.00;101118.09;10444664;28;20049;-81
2023/07/21 05:39:40;;;;;;;0.30;0.10;;;;;;;21.74;100.00;101117.63;10430314;28;20477;-80
2023/07/21 05:44:45;;;;;;;0.10;0.10;;;;;;;22.06;100.00;101118.81;10426826;28;20045;-80
2023/07/21 05:49:48;;;;;;;0.00;0.00;;;;;;;22.86;100.00;101118.13;10441727;28;20697;-80
2023/07/21 05:54:50;;;;;;;0.10;0.10;;;;;;;23.24;100.00;101116.41;10428755;28;20053;-80
2023/07/21 05:59:53;;;;;;;0.25;0.15;;;;;;;22.91;100.00;101118.88;10420406;28;20140;-80
2023/07/21 06:04:57;;;;;;;0.08;0.08;;;;;;;22.97;100.00;101113.50;10427960;28;20087;-81
2023/07/21 06:10:07;;;;;;;0.15;0.15;;;;;;;23.05;100.00;101114.16;10451136;28;20049;-81
2023/07/21 06:15:25;;;;;;;0.28;0.10;;;;;;;23.66;100.00;101118.88;10410765;28;20522;-80
2023/07/21 06:20:36;;;;;;;0.10;0.10;;;;;;;23.72;100.00;101107.34;10411523;28;20077;-80
2023/07/21 06:25:39;;;;;;;0.00;0.00;;;;;;;23.55;100.00;101110.41;10438080;28;20519;-80
2023/07/21 06:30:46;;;;;;;0.00;0.00;;;;;;;23.77;100.00;101116.84;10426187;28;20037;-80
2023/07/21 06:36:00;;;;;;;0.13;0.13;;;;;;;23.36;100.00;101115.25;10410838;28;20048;-80
2023/07/21 06:41:13;;;;;;;0.22;0.20;;;;;;;23.63;100.00;101108.44;10418269;28;20063;-80
2023/07/21 06:46:47;;;;;;;0.30;0.30;;;;;;;23.31;100.00;101106.63;10428800;28;20128;-81
2023/07/21 06:52:09;;;;;;;0.60;0.30;;;;;;;23.49;100.00;101105.31;10432161;28;20505;-81
2023/07/21 06:57:12;;;;;;;0.20;0.10;;;;;;;24.48;100.00;101094.75;10443261;28;20037;-81
2023/07/21 07:02:13;;;;;;;0.10;0.00;;;;;;;24.60;100.00;101104.97;10430798;28;20566;-80
2023/07/21 07:07:15;;;;;;;0.10;0.10;;;;;;;24.77;100.00;101106.22;10409766;28;20137;-80
2023/07/21 07:12:17;;;;;;;0.00;0.00;;;;;;;25.28;100.00;101100.22;10439718;28;20041;-80
2023/07/21 07:17:20;;;;;;;0.13;0.10;;;;;;;25.75;100.00;101098.72;10444518;28;20056;-80
2023/07/21 07:22:23;;;;;;;0.20;0.20;;;;;;;25.59;100.00;101098.41;10443628;28;20404;-80
2023/07/21 07:27:24;;;;;;;0.40;0.28;;;;;;;26.18;100.00;101085.81;10450519;28;20472;-80
2023/07/21 07:32:26;;;;;;;0.10;0.10;;;;;;;25.99;100.00;101083.78;10433839;28;20041;-80
2023/07/21 07:37:28;;;;;;;0.45;0.30;;;;;;;26.12;100.00;101086.88;10437209;28;20484;-79
2023/07/21 07:42:29;;;;;;;0.38;0.35;;;;;;;27.14;100.00;101077.72;10433858;28;20065;-80
2023/07/21 07:47:31;;;;;;;0.22;0.20;;;;;;;26.87;100.00;101075.25;10450868;28;20041;-80
2023/07/21 07:52:33;;;;;;;0.32;0.32;;;;;;;26.46;100.00;101080.38;10425859;28;20049;-80
2023/07/21 07:57:34;;;;;;;2.25;0.55;;;;;;;26.73;100.00;101080.22;10451325;28;20184;-80
2023/07/21 08:02:36;;;;;;;2.15;0.93;;;;;;;27.11;100.00;101083.13;10447702;28;20060;-80
2023/07/21 08:07:38;;;;;;;0.50;0.35;;;;;;;27.45;100.00;101081.75;10441942;28;20049;-80
2023/07/21 08:12:40;;;;;;;0.85;0.80;;;;;;;27.67;100.00;101072.88;10446655;28;20072;-80
2023/07/21 08:17:41;;;;;;;1.48;0.63;;;;;;;26.31;100.00;101086.22;10445073;28;20037;-81
2023/07/21 08:22:43;;;;;;;2.25;1.30;;;;;;;26.96;100.00;101089.03;10442047;28;20072;-81
2023/07/21 08:27:45;;;;;;;1.15;0.52;;;;;;;28.52;100.00;101079.72;10454355;28;20047;-81
2023/07/21 08:32:47;;;;;;;0.93;0.75;;;;;;;27.51;100.00;101081.53;10452355;28;20052;-81
2023/07/21 08:37:48;;;;;;;0.73;0.70;;;;;;;27.86;100.00;101084.41;10436645;28;20052;-81
2023/07/21 08:42:50;;;;;;;0.20;0.20;;;;;;;27.52;100.00;101085.84;10425461;28;20388;-80
2023/07/21 08:47:52;;;;;;;0.43;0.38;;;;;;;27.11;100.00;101093.72;10443346;28;20052;-80
2023/07/21 08:52:54;;;;;;;0.22;0.22;;;;;;;27.51;98.14;101089.47;10426297;28;20111;-80
2023/07/21 08:57:58;;;;;;;0.35;0.25;;;;;;;27.57;100.00;101090.09;10439567;28;20059;-81
2023/07/21 09:03:01;;;;;;;0.45;0.17;;;;;;;26.51;100.00;101086.31;10436759;28;20053;-80
2023/07/21 09:08:03;;;;;;;1.15;0.57;;;;;;;26.26;100.00;101084.59;10440924;28;20037;-80
2023/07/21 09:13:14;;;;;;;0.75;0.65;;;;;;;26.52;100.00;101088.06;10446769;28;20042;-81
2023/07/21 09:18:16;;;;;;;0.88;0.57;;;;;;;27.36;100.00;101076.84;10431567;28;20041;-80
2023/07/21 09:23:19;;;;;;;0.38;0.38;;;;;;;27.06;100.00;101082.47;10432277;28;20511;-81
2023/07/21 09:28:40;;;;;;;0.03;0.03;;;;;;;27.58;100.00;101086.53;10453079;28;20049;-80
2023/07/21 09:33:45;;;;;;;0.20;0.13;;;;;;;27.33;100.00;101076.97;10443123;28;20041;-81
2023/07/21 09:38:48;;;;;;;0.38;0.32;;;;;;;26.99;100.00;101088.94;10428667;28;20037;-81
2023/07/21 09:43:50;;;;;;;0.35;0.35;;;;;;;26.48;100.00;101081.16;10444241;28;20079;-80
2023/07/21 09:48:53;;;;;;;1.55;0.10;;;;;;;27.37;98.04;101084.69;10453765;28;20041;-80
2023/07/21 09:54:03;;;;;;;0.55;0.10;;;;;;;27.99;100.00;101068.84;10427513;28;20507;-80
2023/07/21 09:59:06;;;;;;;0.35;0.22;;;;;;;27.30;100.00;101070.00;10448302;28;20455;-81
2023/07/21 10:04:08;;;;;;;0.22;0.22;;;;;;;29.51;98.26;101067.00;10450179;28;20040;-81
2023/07/21 10:09:10;;;;;;;0.05;0.05;;;;;;;28.09;95.21;101066.69;10442136;28;20072;-80
2023/07/21 10:14:33;;;;;;;0.20;0.20;;;;;;;28.07;93.97;101073.81;10421356;28;20044;-80
2023/07/21 10:19:42;;;;;;;0.25;0.22;;;;;;;28.02;97.10;101066.03;10439853;28;20049;-80
2023/07/21 10:24:45;;;;;;;0.30;0.20;;;;;;;28.65;96.28;101064.97;10443591;28;20420;-81
2023/07/21 10:29:51;;;;;;;0.10;0.10;;;;;;;29.13;93.95;101065.31;10440027;28;20091;-80
2023/07/21 10:34:53;;;;;;;0.73;0.28;;;;;;;29.09;100.00;101069.06;10428103;28;20041;-80
2023/07/21 10:39:55;;;;;;;0.17;0.15;;;;;;;29.54;94.74;101048.28;10419987;28;20045;-81
2023/07/21 10:44:57;;;;;;;0.65;0.40;;;;;;;29.68;95.48;101050.19;10452793;28;20521;-80
2023/07/21 10:49:58;;;;;;;0.15;0.10;;;;;;;29.61;97.84;101043.47;10437371;28;20045;-80
2023/07/21 10:55:00;;;;;;;0.22;0.10;;;;;;;29.65;89.68;101050.38;10442270;28;20099;-80
2023/07/21 11:00:02;;;;;;;0.22;0.15;;;;;;;29.98;88.20;101030.94;10445768;28;20528;-80
2023/07/21 11:05:04;;;;;;;0.45;0.25;;;;;;;29.44;83.38;101039.06;10446803;28;20496;-80
2023/07/21 11:10:06;;;;;;;0.00;0.00;;;;;;;29.11;89.10;101040.66;10448698;28;20580;-80
2023/07/21 11:15:10;;;;;;;0.05;0.03;;;;;;;29.09;88.07;101042.53;10447528;28;20404;-81
2023/07/21 11:20:12;;;;;;;0.17;0.17;;;;;;;29.71;85.13;101036.75;10431005;28;20055;-80
2023/07/21 11:25:14;;;;;;;0.00;0.00;;;;;;;29.25;82.59;101039.09;10451598;28;20045;-80
2023/07/21 11:30:17;;;;;;;0.15;0.15;;;;;;;28.77;86.05;101045.00;10449491;28;20061;-81
2023/07/21 11:35:19;;;;;;;0.20;0.20;;;;;;;28.31;87.65;101041.84;10446003;28;20049;-81
2023/07/21 11:40:25;;;;;;;1.20;0.65;;;;;;;28.81;87.36;101038.59;10428383;28;20056;-81
2023/07/21 11:45:34;;;;;;;0.00;0.00;;;;;;;28.77;83.79;101031.75;10431800;28;20102;-80
2023/07/21 11:50:37;;;;;;;0.00;0.00;;;;;;;28.30;86.34;101032.19;10432463;28;20128;-81
2023/07/21 11:55:38;;;;;;;0.10;0.10;;;;;;;28.06;86.12;101024.44;10414774;28;20548;-81
2023/07/21 12:00:42;;;;;;;0.00;0.00;;;;;;;27.98;90.70;101021.22;10441781;28;20055;-81
2023/07/21 12:05:45;;;;;;;0.08;0.08;;;;;;;28.23;92.09;101020.16;10443871;28;20049;-80
2023/07/21 12:10:47;;;;;;;0.20;0.10;;;;;;;29.08;95.68;101016.94;10442331;28;20547;-80
2023/07/21 12:15:49;;;;;;;0.40;0.15;;;;;;;28.03;86.76;101019.25;10432533;28;20528;-80
2023/07/21 12:20:50;;;;;;;0.22;0.10;;;;;;;28.28;86.19;101023.44;10441436;28;20069;-80
2023/07/21 12:25:52;;;;;;;0.00;0.00;;;;;;;29.72;89.86;101009.28;10448898;28;20037;-81
2023/07/21 12:30:54;;;;;;;0.10;0.10;;;;;;;29.23;85.86;101006.47;10443701;28;20045;-80
2023/07/21 12:35:56;;;;;;;1.42;0.05;;;;;;;28.94;83.29;101006.16;10445927;28;20041;-81
2023/07/21 12:40:58;;;;;;;0.20;0.10;;;;;;;29.04;87.19;101012.72;10425407;28;20045;-80
2023/07/21 12:46:03;;;;;;;0.17;0.13;;;;;;;29.21;86.46;101003.91;10447211;28;20585;-81
2023/07/21 12:51:04;;;;;;;0.03;0.03;;;;;;;29.78;82.56;100999.25;10436060;28;20412;-80
2023/07/21 12:56:08;;;;;;;0.00;0.00;;;;;;;28.91;86.95;100995.72;10428546;28;20049;-81
2023/07/21 13:01:09;;;;;;;1.48;0.45;;;;;;;29.51;85.19;101002.44;10434006;28;20076;-81
2023/07/21 13:06:12;;;;;;;0.17;0.10;;;;;;;28.33;86.94;101000.25;10428682;28;20045;-80
2023/07/21 13:11:13;;;;;;;0.05;0.05;;;;;;;27.71;86.32;101013.63;10437059;28;20045;-81
2023/07/21 13:16:15;;;;;;;0.43;0.20;;;;;;;27.90;87.59;101012.78;10441696;28;20717;-81
2023/07/21 13:21:17;;;;;;;0.15;0.10;;;;;;;27.45;87.80;101012.97;10418784;28;20037;-80
2023/07/21 13:26:19;;;;;;;0.10;0.10;;;;;;;27.12;88.30;101026.69;10447262;28;20037;-81
2023/07/21 13:31:20;;;;;;;0.28;0.10;;;;;;;26.22;97.34;101045.16;10445739;28;20037;-80
2023/07/21 13:36:23;;;;;;;0.20;0.20;;;;;;;26.06;99.39;101047.47;10429517;28;20049;-81
2023/07/21 13:41:26;;;;;;;0.00;0.00;;;;;;;25.75;100.00;101048.59;10442869;28;20424;-81
2023/07/21 13:46:28;;;;;;;0.10;0.10;;;;;;;25.89;100.00;101063.94;10445280;28;20041;-80
2023/07/21 13:51:31;;;;;;;0.40;0.20;;;;;;;25.56;100.00;101067.72;10444634;28;20407;-81
2023/07/21 13:56:33;;;;;;;0.28;0.20;;;;;;;24.56;100.00;101084.88;10444037;28;20075;-79
2023/07/21 14:01:35;;;;;;;0.28;0.20;;;;;;;24.66;100.00;101094.28;10426809;28;20067;-81
2023/07/21 14:06:37;;;;;;;0.35;0.20;;;;;;;24.73;100.00;101094.06;10438527;28;20064;-81
2023/07/21 14:11:40;;;;;;;0.20;0.20;;;;;;;24.02;100.00;101110.09;10441947;28;20045;-80
2023/07/21 14:16:42;;;;;;;0.75;0.43;;;;;;;23.28;100.00;101128.56;10447113;28;20060;-81
2023/07/21 14:21:44;;;;;;;0.22;0.20;;;;;;;22.89;100.00;101136.44;10447822;28;20041;-79
2023/07/21 14:26:46;;;;;;;0.00;0.00;;;;;;;22.37;100.00;101144.47;10439031;28;20057;-81
2023/07/21 14:31:47;;;;;;;0.38;0.38;;;;;;;22.21;100.00;101149.13;10444780;28;20053;-80
2023/07/21 14:36:49;;;;;;;0.35;0.28;;;;;;;21.44;100.00;101153.06;10455618;28;20049;-79
2023/07/21 14:41:51;;;;;;;0.30;0.30;;;;;;;21.92;100.00;101137.41;10437070;28;20044;-79
2023/07/21 14:46:52;;;;;;;0.35;0.13;;;;;;;22.18;100.00;101129.06;10433064;28;20056;-79
2023/07/21 14:51:58;;;;;;;0.20;0.20;;;;;;;23.16;100.00;101115.69;10434936;28;20130;-79
2023/07/21 14:57:00;;;;;;;0.08;0.08;;;;;;;23.11;100.00;101108.78;10452104;28;20045;-79
2023/07/21 15:02:01;;;;;;;0.00;0.00;;;;;;;23.25;100.00;101107.63;10437418;28;20051;-79
2023/07/21 15:07:03;;;;;;;0.20;0.00;;;;;;;23.72;100.00;101108.19;10449965;28;20052;-79
2023/07/21 15:12:05;;;;;;;0.20;0.10;;;;;;;23.74;100.00;101100.28;10436835;28;20499;-78
2023/07/21 15:17:07;;;;;;;0.00;0.00;;;;;;;24.42;100.00;101098.47;10453266;28;20079;-79
2023/07/21 15:22:09;;;;;;;0.20;0.20;;;;;;;24.69;100.00;101096.78;10435247;28;20043;-80
2023/07/21 15:27:11;;;;;;;0.63;0.30;;;;;;;25.25;100.00;101100.34;10450531;28;20052;-79
2023/07/21 15:32:12;;;;;;;0.10;0.10;;;;;;;24.79;100.00;101096.53;10450939;28;20060;-79
2023/07/21 15:37:14;;;;;;;0.15;0.15;;;;;;;24.90;100.00;101104.97;10450459;28;20572;-79
2023/07/21 15:42:16;;;;;;;0.20;0.20;;;;;;;25.09;100.00;101096.47;10449194;28;20412;-79
2023/07/21 15:47:17;;;;;;;0.28;0.22;;;;;;;25.49;100.00;101097.84;10433889;28;20527;-79
2023/07/21 15:52:19;;;;;;;0.20;0.20;;;;;;;25.65;100.00;101087.63;10445015;28;20068;-79
2023/07/21 15:57:21;;;;;;;0.10;0.10;;;;;;;25.46;100.00;101095.31;10448016;28;20070;-81
2023/07/21 16:02:22;;;;;;;0.30;0.17;;;;;;;25.13;100.00;101095.47;10442152;28;20053;-79
2023/07/21 16:07:24;;;;;;;0.15;0.13;;;;;;;24.86;100.00;101116.50;10459311;28;20045;-80
2023/07/21 16:12:26;;;;;;;0.10;0.10;;;;;;;22.41;100.00;101129.56;10441599;28;20570;-80
2023/07/21 16:17:28;;;;;;;0.00;0.00;;;;;;;22.55;100.00;101139.75;10442524;28;20045;-79
2023/07/21 16:22:30;;;;;;;0.20;0.20;;;;;;;22.41;100.00;101135.66;10425888;28;20043;-79
2023/07/21 16:27:31;;;;;;;0.05;0.05;;;;;;;22.87;100.00;101130.34;10448087;28;20061;-79
2023/07/21 16:32:33;;;;;;;0.60;0.30;;;;;;;22.43;100.00;101131.25;10448360;28;20045;-79
2023/07/21 16:37:35;;;;;;;0.15;0.15;;;;;;;22.90;100.00;101131.16;10430915;28;20693;-78
2023/07/21 16:42:37;;;;;;;0.32;0.32;;;;;;;22.92;100.00;101144.25;10441430;28;20053;-78
2023/07/21 16:47:39;;;;;;;0.13;0.13;;;;;;;22.93;100.00;101141.59;10447167;28;20514;-78
2023/07/21 16:52:41;;;;;;;0.40;0.13;;;;;;;23.34;100.00;101138.97;10447672;28;20049;-79
2023/07/21 16:57:43;;;;;;;0.35;0.20;;;;;;;23.51;100.00;101140.28;10430726;28;20045;-79
2023/07/21 17:02:44;;;;;;;0.50;0.50;;;;;;;23.10;100.00;101141.22;10426198;28;20052;-78
2023/07/21 17:07:46;;;;;;;0.55;0.13;;;;;;;23.13;100.00;101151.66;10438222;28;20053;-78
2023/07/21 17:12:48;;;;;;;1.85;0.40;;;;;;;24.35;100.00;101155.69;10444510;28;20045;-79
2023/07/21 17:17:50;;;;;;;0.15;0.10;;;;;;;24.48;100.00;101160.59;10443638;28;20053;-79
2023/07/21 17:22:51;;;;;;;0.20;0.13;;;;;;;24.46;100.00;101157.19;10443318;28;20049;-79
2023/07/21 17:27:53;;;;;;;0.22;0.20;;;;;;;24.47;100.00;101165.03;10435206;28;20063;-79
2023/07/21 17:32:55;;;;;;;0.05;0.05;;;;;;;24.78;100.00;101164.16;10443244;28;20076;-79
2023/07/21 17:37:56;;;;;;;0.15;0.13;;;;;;;25.32;100.00;101170.44;10440475;28;20451;-79
2023/07/21 17:42:58;;;;;;;0.15;0.15;;;;;;;25.03;100.00;101174.84;10419105;28;20053;-79
2023/07/21 17:48:00;;;;;;;0.70;0.55;;;;;;;24.86;100.00;101178.00;10431219;28;20053;-79
2023/07/21 17:53:03;;;;;;;0.43;0.20;;;;;;;23.81;100.00;101178.16;10425973;28;20496;-79
2023/07/21 17:58:05;;;;;;;0.00;0.00;;;;;;;23.73;100.00;101183.56;10431673;28;20054;-78
2023/07/21 18:03:08;;;;;;;0.77;0.30;;;;;;;23.57;100.00;101192.72;10424604;28;20148;-79
2023/07/21 18:08:10;;;;;;;1.17;0.40;;;;;;;23.89;100.00;101197.22;10419582;28;20049;-78
2023/07/21 18:13:11;;;;;;;1.08;0.55;;;;;;;24.00;100.00;101186.47;10415871;28;20045;-79
2023/07/21 18:18:13;;;;;;;0.28;0.28;;;;;;;23.49;100.00;101202.59;10438138;28;20052;-79
2023/07/21 18:23:15;;;;;;;1.55;0.20;;;;;;;24.11;100.00;101198.47;10444862;28;20559;-79
2023/07/21 18:28:16;;;;;;;0.05;0.05;;;;;;;23.51;100.00;101206.91;10444496;28;20060;-78
2023/07/21 18:33:18;;;;;;;1.25;0.20;;;;;;;23.30;100.00;101213.53;10440723;28;20049;-78
2023/07/21 18:38:20;;;;;;;3.67;0.55;;;;;;;23.49;100.00;101215.75;10440284;28;20060;-79
2023/07/21 18:43:21;;;;;;;0.40;0.40;;;;;;;23.26;100.00;101225.00;10439269;28;20063;-78
2023/07/21 18:48:23;;;;;;;0.10;0.10;;;;;;;22.99;100.00;101224.66;10427516;28;20045;-78
2023/07/21 18:53:25;;;;;;;0.85;0.47;;;;;;;23.51;100.00;101227.94;10444287;28;20053;-78
2023/07/21 18:58:27;;;;;;;0.52;0.20;;;;;;;23.47;100.00;101223.66;10444550;28;20041;-78
2023/07/21 19:03:29;;;;;;;0.10;0.10;;;;;;;23.68;100.00;101227.56;10448919;28;20492;-78
2023/07/21 19:08:30;;;;;;;0.65;0.45;;;;;;;23.57;100.00;101240.06;10434671;28;20045;-78
2023/07/21 19:13:32;;;;;;;0.70;0.20;;;;;;;23.29;100.00;101245.97;10450752;28;20049;-78
2023/07/21 19:18:34;;;;;;;0.17;0.17;;;;;;;23.07;100.00;101246.38;10434392;28;20102;-78
2023/07/21 19:23:37;;;;;;;0.82;0.50;;;;;;;22.68;100.00;101254.16;10445556;28;20500;-78
2023/07/21 19:28:39;;;;;;;0.45;0.43;;;;;;;22.94;100.00;101260.69;10443538;28;20156;-79
2023/07/21 19:33:40;;;;;;;0.03;0.03;;;;;;;22.69;100.00;101271.66;10442426;28;20056;-78
2023/07/21 19:38:42;;;;;;;0.17;0.10;;;;;;;22.63;100.00;101277.03;10440124;28;20136;-79
2023/07/21 19:43:43;;;;;;;0.03;0.03;;;;;;;22.40;100.00;101290.56;10453299;28;20041;-79
2023/07/21 19:48:45;;;;;;;0.45;0.45;;;;;;;21.94;100.00;101302.63;10429203;28;20068;-78
2023/07/21 19:53:48;;;;;;;2.17;0.38;;;;;;;21.67;100.00;101299.53;10449516;28;20064;-78
2023/07/21 19:58:50;;;;;;;0.25;0.25;;;;;;;21.79;100.00;101304.59;10446193;28;20084;-78
2023/07/21 20:03:52;;;;;;;0.35;0.35;;;;;;;21.79;100.00;101307.22;10447218;28;20467;-78
2023/07/21 20:08:54;;;;;;;0.22;0.10;;;;;;;21.50;100.00;101313.72;10440013;28;20064;-78
2023/07/21 20:13:55;;;;;;;0.20;0.20;;;;;;;21.80;100.00;101321.22;10431979;28;20056;-79
2023/07/21 20:18:57;;;;;;;0.10;0.10;;;;;;;21.50;100.00;101328.56;10448282;28;20052;-78
2023/07/21 20:23:59;;;;;;;0.63;0.13;;;;;;;21.18;100.00;101333.34;10450765;28;20410;-78
2023/07/21 20:29:02;;;;;;;0.10;0.10;;;;;;;21.17;100.00;101336.84;10448567;28;20432;-78
2023/07/21 20:34:05;;;;;;;0.17;0.17;;;;;;;21.08;100.00;101348.25;10442458;28;20048;-78
2023/07/21 20:39:06;;;;;;;0.00;0.00;;;;;;;20.80;100.00;101346.81;10425147;28;20037;-78
2023/07/21 20:44:08;;;;;;;0.88;0.30;;;;;;;21.26;100.00;101337.63;10444867;28;20495;-78
2023/07/21 20:49:10;;;;;;;2.90;0.38;;;;;;;21.13;100.00;101345.59;10433349;28;20095;-78
2023/07/21 20:54:11;;;;;;;0.10;0.03;;;;;;;21.39;100.00;101352.31;10439695;28;20480;-78
2023/07/21 20:59:13;;;;;;;0.52;0.17;;;;;;;21.27;100.00;101352.44;10446764;28;20124;-78
2023/07/21 21:04:15;;;;;;;3.10;0.60;;;;;;;21.70;100.00;101354.56;10430914;28;20048;-78
2023/07/21 21:09:17;;;;;;;0.00;0.00;;;;;;;21.66;100.00;101351.13;10446427;28;20056;-78
2023/07/21 21:14:18;;;;;;;0.35;0.30;;;;;;;22.00;100.00;101355.03;10446811;28;20041;-78
2023/07/21 21:19:20;;;;;;;0.00;0.00;;;;;;;22.09;100.00;101369.75;10445910;28;20041;-78
2023/07/21 21:24:22;;;;;;;0.20;0.13;;;;;;;22.11;100.00;101368.00;10429318;28;20047;-79
2023/07/21 21:29:23;;;;;;;0.00;0.00;;;;;;;22.38;100.00;101366.66;10445026;28;20132;-79
2023/07/21 21:34:25;;;;;;;0.00;0.00;;;;;;;22.62;100.00;101365.47;10445818;28;20048;-79
2023/07/21 21:39:27;;;;;;;0.00;0.00;;;;;;;22.49;100.00;101370.03;10440848;28;20429;-79
2023/07/21 21:44:28;;;;;;;0.00;0.00;;;;;;;22.05;100.00;101368.94;10442835;28;20568;-79
2023/07/21 21:49:30;;;;;;;0.05;0.05;;;;;;;21.86;100.00;101371.81;10443271;28;20476;-79
2023/07/21 21:54:31;;;;;;;0.38;0.15;;;;;;;21.91;100.00;101374.38;10445150;28;20053;-79
2023/07/21 21:59:33;;;;;;;0.00;0.00;;;;;;;21.71;100.00;101372.00;10445976;28;20037;-79
2023/07/21 22:04:35;;;;;;;0.00;0.00;;;;;;;21.54;100.00;101367.84;10429302;28;20122;-79
2023/07/21 22:09:37;;;;;;;2.40;0.20;;;;;;;21.27;100.00;101376.00;10418637;28;20041;-79
2023/07/21 22:14:38;;;;;;;0.43;0.40;;;;;;;21.37;100.00;101365.41;10439415;28;20051;-79
2023/07/21 22:19:56;;;;;;;0.52;0.35;;;;;;;21.04;100.00;101383.25;10442409;28;20068;-79
2023/07/21 22:25:11;;;;;;;0.03;0.03;;;;;;;21.24;100.00;101369.94;10428026;28;20446;-79
2023/07/21 22:30:12;;;;;;;0.22;0.15;;;;;;;21.06;100.00;101375.38;10430549;28;20052;-79
2023/07/21 22:35:14;;;;;;;0.38;0.10;;;;;;;21.07;100.00;101372.72;10454515;28;20050;-79
2023/07/21 22:40:16;;;;;;;0.00;0.00;;;;;;;20.89;100.00;101372.91;10434165;28;20044;-79
2023/07/21 22:45:18;;;;;;;0.00;0.00;;;;;;;21.12;100.00;101375.28;10452296;28;20040;-79
2023/07/21 22:50:19;;;;;;;0.10;0.00;;;;;;;21.08;100.00;101379.69;10452053;28;20045;-79
2023/07/21 22:55:21;;;;;;;0.00;0.00;;;;;;;20.95;100.00;101379.84;10450921;28;20120;-79
2023/07/21 23:00:22;;;;;;;0.10;0.10;;;;;;;20.19;100.00;101386.53;10435252;28;20048;-79